Welkom op onze vernieuwde website. Er wordt nog verder aan gewerkt.


Bezoek ook deze websites:

Template documentation
and downloads

And another site




METAR rapporten vliegvelden

   
EHVK - Volkel Rnlafb, Netherlands
Afstand tot: ZW 18 km
Gewijzigd: 24-06-2021 11:25
Motregen, Bewolking  
Motregen, Bewolking  
   Wind: NNO 7.4 km/h
Wind: NNO 7.4 km/h
Temperatuur: 15°C
Dauwpunt: 11°C
Vochtigheid: 77%
Barometer: 1021 mb
Bewolking: Bewolking
Zicht: meer dan 10 km
Bewolking: Licht bewolkt 579.1 m,
Bewolking 853.4 m
EHVK 240925Z AUTO 03004KT 340V060 9999 DZ FEW019 OVC028 15/11 Q1021 BLU NOSIG
EDLV - Niederrhein, Germany
Afstand tot: ZO 25 km
Gewijzigd: 24-06-2021 11:20
Grotendeels bewolkt  
Grotendeels bewolkt  
   Wind: NNO 9.3 km/h
Wind: NNO 9.3 km/h
Temperatuur: 17°C
Dauwpunt: 12°C
Vochtigheid: 73%
Barometer: 1020 mb
Bewolking: Grotendeels bewolkt
Zicht: meer dan 10 km
Bewolking: Grotendeels bewolkt 1280.2 m
EDLV 240920Z 02005KT 280V070 9999 BKN042 17/12 Q1020
EHDL - Deelen Rnlafb, Netherlands
Afstand tot: N 35 km
Gewijzigd: 24-06-2021 11:25
Bewolking  
Bewolking  
   Wind: varieert 13 km/h
Wind: varieert 13 km/h
Temperatuur: 17°C
Dauwpunt: 11°C
Vochtigheid: 68%
Barometer: 1020 mb
Bewolking: Bewolking
Zicht: meer dan 10 km
Bewolking: Gedeeltelijk bewolkt 670.6 m,
Bewolking 883.9 m
EHDL 240925Z AUTO VRB07KT 9999 SCT022 OVC029 17/11 Q1020 BLACKWHT
EHEH - Eindhoven Rnlafb, Netherlands
Afstand tot: ZW 48 km
Gewijzigd: 24-06-2021 11:25
Bewolking  
Bewolking  
   Wind: Noorden 13 km/h
Wind: Noorden 13 km/h
Temperatuur: 15°C
Dauwpunt: 11°C
Vochtigheid: 77%
Barometer: 1021 mb
Bewolking: Bewolking
Zicht: meer dan 10 km
Bewolking: Bewolking 823 m
EHEH 240925Z AUTO 01007KT 320V050 9999 OVC027 15/11 Q1021 BLU NOSIG
EHGR - Gilze-Rijen Rnla, Netherlands
Afstand tot: WZW 70 km
Gewijzigd: 24-06-2021 11:25
Bewolking  
Bewolking  
   Wind: Noorden 13 km/h
Wind: Noorden 13 km/h
Temperatuur: 16°C
Dauwpunt: 11°C
Vochtigheid: 72%
Barometer: 1021 mb
Bewolking: Bewolking
Zicht: meer dan 10 km
Bewolking: Bewolking 1005.8 m
EHGR 240925Z AUTO 01007KT 320V060 9999 OVC033 16/11 Q1021 BLU NOSIG
EBBL - Kleine-Brogel(Ba, Belgium
Afstand tot: ZZW 71 km
Gewijzigd: 24-06-2021 11:25
Grotendeels bewolkt  
Grotendeels bewolkt  
   Wind: Noorden 13 km/h
Wind: Noorden 13 km/h
Temperatuur: 18°C
Dauwpunt: 12°C
Vochtigheid: 68%
Barometer: 1020 mb
Bewolking: Grotendeels bewolkt
Zicht: meer dan 10 km
Bewolking: Licht bewolkt 609.6 m,
Grotendeels bewolkt 1066.8 m
EBBL 240925Z 01007KT 9999 FEW020 BKN035 18/12 Q1020 BLU BLU TEMPO WHT

Script ontwikkeld door  Saratoga-weather.org Aangepast voor de template door  Weerstation Leuven

Apparatuur in gebruik:

Weerstation
Davis VP Vue

Weerprogramma
Meteobridge

Weercomputer
MeteoBridge Red +

Webleverancier
mijn provider

Davis VP Vue

Meteobridge

MeteoBridge Red +

mijn provider